• Join FlightAware (Why Join?)
  • Login
  • US Flag GB Flag 
14:57 EDT


 

Airport Tracker/Info


-or-


 

Live Flight TrackerFlight Track Log ✈ N753C ✈ 06-May-2013 ✈ KHOU - KDAL

Flight Track Log - Related Links

Times and Time Zones

All times are in EDT time to prevent confusion due to time zone crossing. See the N753C flight status page for this flight to view local times or setup timezone preferences in your user account.

Time Position Orientation Groundspeed Altitude Reporting Facility
EDT Latitude Longitude Course Direction KTS MPH feet Rate Location/Type
17:49 29.6769 -95.2842 North 131 151 1,100  Level Houston Center
17:51 29.7429 -95.2984 349° North  Level FlightAware Approximate
17:52 29.7731 -95.2797 350° North 157 181 4,100  Level Houston Center
17:53 29.8097 -95.2856 352° North 147 169 5,300 1,080 Climbing Houston Center
17:54 29.8539 -95.2892 356° North 147 169 6,400 1,080 Climbing Houston Center
17:55 29.8983 -95.2933 355° North 147 169 7,600 1,080 Climbing Houston Center
17:56 29.9383 -95.2958 357° North 148 170 8,700 1,020 Climbing Houston Center
17:58 30.1442 -95.3855 350° North  Level FlightAware Approximate
17:58 30.0239 -95.2975 359° North 154 177 10,900  Level Houston Center
17:59 30.0711 -95.2989 359° North 159 183 12,000 960 Climbing Houston Center
18:00 30.1092 -95.3133 342° North 153 176 13,000 900 Climbing Houston Center
18:02 30.2011 -95.3458 343° North 158 182 15,000 960 Climbing Houston Center
18:03 30.2442 -95.3625 342° North 162 186 16,000 840 Climbing Houston Center
18:04 30.2889 -95.3775 344° North 166 191 16,800 780 Climbing Houston Center
18:05 30.3353 -95.3944 343° North 172 198 17,700 600 Climbing Houston Center
18:07 30.4090 -95.4394 353° North  Level FlightAware Approximate
18:09 30.5464 -95.4697 349° North 211 243 20,000  Level Houston Center
18:11 30.6157 -95.4873 348° North  Level FlightAware Approximate
18:11 30.6694 -95.5047 348° North 228 262 20,000  Level Houston Center
18:13 30.7316 -95.5156 351° North  Level FlightAware Approximate
18:13 30.8044 -95.5356 351° North 226 260 20,000  Level Houston Center
18:14 30.8056 -95.5283 351° North  Level FlightAware Approximate
18:14 30.8678 -95.5494 349° North 229 264 20,000  Level Houston Center
18:15 30.8630 -95.5400 349° North  Level FlightAware Approximate
18:15 30.9303 -95.5647 348° North 228 262 20,000  Level Houston Center
18:18 31.0750 -95.6017 348° North 235 270 20,000  Level Fort Worth Center
18:19 31.1331 -95.6097 353° North 233 268 20,000  Level Houston Center
18:20 31.1967 -95.6247 349° North 233 268 20,000  Level Houston Center
18:21 31.2606 -95.6394 349° North 233 268 20,000  Level Houston Center
18:22 31.3325 -95.6550 350° North 224 258 20,000  Level Fort Worth Center
18:24 31.4336 -95.7133 334° Northwest 220 253 20,000  Level Houston Center
18:25 31.4989 -95.7547 332° Northwest 220 253 20,000  Level Houston Center
18:26 31.5494 -95.7872 331° Northwest 224 258 20,000  Level Fort Worth Center
18:27 31.6042 -95.8231 331° Northwest 229 264 20,000 -180 Level Fort Worth Center
18:28 31.6589 -95.8611 329° Northwest 229 264 19,700 -780 Descending Fort Worth Center
18:29 31.7053 -95.8969 327° Northwest 229 264 18,500 -1,200 Descending Fort Worth Center
18:30 31.7578 -95.9303 332° Northwest 229 264 17,300 -1,320 Descending Fort Worth Center
18:31 31.8125 -95.9661 331° Northwest 228 262 15,900 -1,440 Descending Fort Worth Center
18:32 31.8608 -95.9994 330° Northwest 210 242 14,500 -1,380 Descending Fort Worth Center
18:33 31.9050 -96.0283 331° Northwest 199 229 13,200 -1,320 Descending Fort Worth Center
18:34 31.9536 -96.0617 330° Northwest 199 229 11,900 -1,200 Descending Fort Worth Center
18:35 31.9997 -96.0931 330° Northwest 190 219 10,800 -1,080 Descending Fort Worth Center
18:36 32.0503 -96.1267 331° Northwest 185 213 9,800 -1,080 Descending Fort Worth Center
18:38 32.1322 -96.1842 329° Northwest 185 213 7,600 -900 Descending Fort Worth Center
18:39 32.1742 -96.2131 330° Northwest 179 206 7,100 -300 Descending Fort Worth Center
18:40 32.2142 -96.2347 335° Northwest 167 192 7,000 -60 Descending Fort Worth Center
18:41 32.2583 -96.2611 333° Northwest 167 192 7,000  Level Fort Worth Center
18:42 32.2961 -96.2853 332° Northwest 167 192 7,000  Level Fort Worth Center
18:44 32.3819 -96.3358 334° Northwest 172 198 7,000 -120 Level Fort Worth Center
18:45 32.4303 -96.3647 333° Northwest 172 198 6,800 -600 Descending Fort Worth Center
18:46 32.4619 -96.4014 316° Northwest 177 204 5,800 -900 Descending Fort Worth Center
18:47 32.4997 -96.4453 316° Northwest 177 204 5,100 -420 Descending Fort Worth Center
18:48 32.5272 -96.4769 316° Northwest 164 189 5,000 -60 Descending Fort Worth Center
18:49 32.5608 -96.5161 316° Northwest 158 182 5,000  Level Fort Worth Center
18:50 32.5903 -96.5481 318° Northwest 158 182 5,100 -60 Climbing Fort Worth Center
18:51 32.6239 -96.5894 314° West 158 182 4,900 -660 Descending Fort Worth Center
18:53 32.6892 -96.6656 316° Northwest 158 182 3,200 -660 Descending Fort Worth Center
18:54 32.7164 -96.6950 318° Northwest 158 182 3,000 -180 Descending Fort Worth Center
18:55 32.7500 -96.7333 316° Northwest 145 167 2,900 -420 Descending Dallas / Fort Worth TRACON
18:56 32.7833 -96.7667 320° Northwest 145 167 2,200 -780 Descending Dallas / Fort Worth TRACON
18:57 32.8000 -96.8000 301° West 122 140 1,400 -840 Descending Dallas / Fort Worth TRACON
18:59 32.8333 -96.8500 292° West  Level FlightAware Approximate
19:06 32.8471 -96.8518 292° West  Level Estimated
19:07 32.8471 -96.8518 292° West  Level Estimated
19:08 32.8471 -96.8518 292° West  Level Estimated
19:09 32.8471 -96.8518 292° West  Level Estimated